La Joie De Mar — ZJL7261 — position and weather

sailwx.info

Track history (hours):
 
Tides and Currents Weather Stations Pressure Air Temp Water Temp Dewpoint Dewpoint Depression Visibility Wind Speed Wind Dir Waves Ship Positions

La Joie De Mar

Last reported at 2018-Aug-07 21:00 UTC. Time now 2018-Aug-14 13:46 UTC.
Position N 43°49' W 069°31'.

; draft 3.7 m.

MMSI: 378218000.

Date/timePositionNaut miles runAvg speedWind from/ knotsBaromVisibWave heightAir tempDewpointWater temp
2018-Aug-07 21:00N 43°49' W 069°31'5 9.8
2018-Aug-07 20:30N 43°47' W 069°24'5 9.2
2018-Aug-07 19:59N 43°45' W 069°19'4 8.8
2018-Aug-07 19:31N 43°42' W 069°15'13 0.5
2018-Aug-06 17:46N 43°48' W 069°30'4 6.3
2018-Aug-06 17:06N 43°47' W 069°24'3 3.4
2018-Aug-06 16:20N 43°46' W 069°21'1 3.7
2018-Aug-06 16:00N 43°46' W 069°19'0 0.3
2018-Aug-06 15:30N 43°46' W 069°19'0 0.0
2018-Aug-06 14:27N 43°46' W 069°19'0 0.0
2018-Aug-06 14:00N 43°46' W 069°19'0 0.0
2018-Aug-06 13:30N 43°46' W 069°19'0 0.0
2018-Aug-06 12:56N 43°46' W 069°19'0 0.0
2018-Aug-06 12:27N 43°46' W 069°19'0 0.1
2018-Aug-06 12:00N 43°46' W 069°19'0 0.0
2018-Aug-06 11:30N 43°46' W 069°19'0 0.0
2018-Aug-06 11:00N 43°46' W 069°19'0 0.0
2018-Aug-06 10:27N 43°46' W 069°19'0 0.0
2018-Aug-06 09:33N 43°46' W 069°19'0 0.1
2018-Aug-06 09:30N 43°46' W 069°19'0 0.0
2018-Aug-06 08:51N 43°46' W 069°19'0 0.0
2018-Aug-06 08:08N 43°46' W 069°19'0 0.0
2018-Aug-06 07:35N 43°46' W 069°19'0 0.0
2018-Aug-06 05:45N 43°46' W 069°19'0 0.0
2018-Aug-06 05:30N 43°46' W 069°19'0 0.0
2018-Aug-06 03:41N 43°46' W 069°19'0 0.0
2018-Aug-06 03:29N 43°46' W 069°19'0 0.0
2018-Aug-06 03:00N 43°46' W 069°19'0 0.0
2018-Aug-06 02:30N 43°46' W 069°19'0 0.0
2018-Aug-06 02:00N 43°46' W 069°19'0 0.0
2018-Aug-06 01:30N 43°46' W 069°19'0 0.0
2018-Aug-06 01:00N 43°46' W 069°19'0 0.0
2018-Aug-06 00:30N 43°46' W 069°19'0 0.0
2018-Aug-05 23:58N 43°46' W 069°19'0 0.0
2018-Aug-05 23:30N 43°46' W 069°19'0 0.0
2018-Aug-05 22:50N 43°46' W 069°19'0 0.0
2018-Aug-05 22:30N 43°46' W 069°19'0 0.0
2018-Aug-05 22:00N 43°46' W 069°19'0 0.0
2018-Aug-05 21:29N 43°46' W 069°19'0 0.0
2018-Aug-05 20:54N 43°46' W 069°19'0 0.0
2018-Aug-05 20:28N 43°46' W 069°19'1 0.8
2018-Aug-05 19:19N 43°47' W 069°19'1 3.4
2018-Aug-05 18:59N 43°46' W 069°18'  
2018-Aug-02 19:42N 43°42' W 069°22'  
2018-Jul-30 22:35N 43°50' W 069°34'3 2.9
2018-Jul-30 21:23N 43°47' W 069°37'3 8.9
2018-Jul-30 21:00N 43°46' W 069°32'5 9.6
2018-Jul-30 20:30N 43°45' W 069°26'4 7.6
2018-Jul-30 20:00N 43°45' W 069°21'2 3.7
2018-Jul-30 19:30N 43°46' W 069°19'0 0.1
2018-Jul-30 19:00N 43°46' W 069°19'0 0.0
2018-Jul-30 18:30N 43°46' W 069°19'0 0.0
2018-Jul-30 18:00N 43°46' W 069°19'0 0.0
2018-Jul-30 17:30N 43°46' W 069°19'0 0.0
2018-Jul-30 17:00N 43°46' W 069°19'0 0.0
2018-Jul-30 16:30N 43°46' W 069°19'0 0.0
2018-Jul-30 15:57N 43°46' W 069°19'0 0.1
2018-Jul-30 15:30N 43°46' W 069°19'0 0.1
2018-Jul-30 15:00N 43°46' W 069°19'0 0.0
2018-Jul-30 14:30N 43°46' W 069°19'0 0.0
2018-Jul-30 13:58N 43°46' W 069°19'0 0.0
2018-Jul-30 13:30N 43°46' W 069°19'0 0.0
2018-Jul-30 13:01N 43°46' W 069°19'0 0.0
2018-Jul-30 12:30N 43°46' W 069°19'0 0.0
2018-Jul-30 12:00N 43°46' W 069°19'0 0.0
2018-Jul-30 11:30N 43°46' W 069°19'0 0.0
2018-Jul-30 11:00N 43°46' W 069°19'0 0.0
2018-Jul-30 10:30N 43°46' W 069°19'0 0.0
2018-Jul-30 10:00N 43°46' W 069°19'0 0.0
2018-Jul-30 09:31N 43°46' W 069°19'0 0.0
2018-Jul-30 09:00N 43°46' W 069°19'0 0.0
2018-Jul-30 08:30N 43°46' W 069°19'0 0.0
2018-Jul-30 08:00N 43°46' W 069°19'0 0.0
2018-Jul-30 07:30N 43°46' W 069°19'0 0.0
2018-Jul-30 07:00N 43°46' W 069°19'0 0.0
2018-Jul-30 06:30N 43°46' W 069°19'0 0.0
2018-Jul-30 06:01N 43°46' W 069°19'0 0.0
2018-Jul-30 05:30N 43°46' W 069°19'0 0.0
2018-Jul-30 05:00N 43°46' W 069°19'0 0.0
2018-Jul-30 04:30N 43°46' W 069°19'0 0.0
2018-Jul-30 04:00N 43°46' W 069°19'0 0.0
2018-Jul-30 03:30N 43°46' W 069°19'0 0.1
2018-Jul-30 03:00N 43°46' W 069°19'0 0.0
2018-Jul-30 02:30N 43°46' W 069°19'11 1.6
2018-Jul-29 19:36N 43°49' W 069°34'  
Track history (hours):
 
Tides and Currents Weather Stations Pressure Air Temp Water Temp Dewpoint Dewpoint Depression Visibility Wind Speed Wind Dir Waves Ship Positions

La Joie De Mar

Last reported at 2018-Aug-07 21:00 UTC. Time now 2018-Aug-14 13:46 UTC.
Position N 43°49' W 069°31'.

; draft 3.7 m.

MMSI: 378218000.

Date/timePositionNaut miles runAvg speedWind from/ knotsBaromVisibWave heightAir tempDewpointWater temp
2018-Aug-07 21:00N 43°49' W 069°31'5 9.8
2018-Aug-07 20:30N 43°47' W 069°24'5 9.2
2018-Aug-07 19:59N 43°45' W 069°19'4 8.8
2018-Aug-07 19:31N 43°42' W 069°15'13 0.5
2018-Aug-06 17:46N 43°48' W 069°30'4 6.3
2018-Aug-06 17:06N 43°47' W 069°24'3 3.4
2018-Aug-06 16:20N 43°46' W 069°21'1 3.7
2018-Aug-06 16:00N 43°46' W 069°19'0 0.3
2018-Aug-06 15:30N 43°46' W 069°19'0 0.0
2018-Aug-06 14:27N 43°46' W 069°19'0 0.0
2018-Aug-06 14:00N 43°46' W 069°19'0 0.0
2018-Aug-06 13:30N 43°46' W 069°19'0 0.0
2018-Aug-06 12:56N 43°46' W 069°19'0 0.0
2018-Aug-06 12:27N 43°46' W 069°19'0 0.1
2018-Aug-06 12:00N 43°46' W 069°19'0 0.0
2018-Aug-06 11:30N 43°46' W 069°19'0 0.0
2018-Aug-06 11:00N 43°46' W 069°19'0 0.0
2018-Aug-06 10:27N 43°46' W 069°19'0 0.0
2018-Aug-06 09:33N 43°46' W 069°19'0 0.1
2018-Aug-06 09:30N 43°46' W 069°19'0 0.0
2018-Aug-06 08:51N 43°46' W 069°19'0 0.0
2018-Aug-06 08:08N 43°46' W 069°19'0 0.0
2018-Aug-06 07:35N 43°46' W 069°19'0 0.0
2018-Aug-06 05:45N 43°46' W 069°19'0 0.0
2018-Aug-06 05:30N 43°46' W 069°19'0 0.0
2018-Aug-06 03:41N 43°46' W 069°19'0 0.0
2018-Aug-06 03:29N 43°46' W 069°19'0 0.0
2018-Aug-06 03:00N 43°46' W 069°19'0 0.0
2018-Aug-06 02:30N 43°46' W 069°19'0 0.0
2018-Aug-06 02:00N 43°46' W 069°19'0 0.0
2018-Aug-06 01:30N 43°46' W 069°19'0 0.0
2018-Aug-06 01:00N 43°46' W 069°19'0 0.0
2018-Aug-06 00:30N 43°46' W 069°19'0 0.0
2018-Aug-05 23:58N 43°46' W 069°19'0 0.0
2018-Aug-05 23:30N 43°46' W 069°19'0 0.0
2018-Aug-05 22:50N 43°46' W 069°19'0 0.0
2018-Aug-05 22:30N 43°46' W 069°19'0 0.0
2018-Aug-05 22:00N 43°46' W 069°19'0 0.0
2018-Aug-05 21:29N 43°46' W 069°19'0 0.0
2018-Aug-05 20:54N 43°46' W 069°19'0 0.0
2018-Aug-05 20:28N 43°46' W 069°19'1 0.8
2018-Aug-05 19:19N 43°47' W 069°19'1 3.4
2018-Aug-05 18:59N 43°46' W 069°18'  
2018-Aug-02 19:42N 43°42' W 069°22'  
2018-Jul-30 22:35N 43°50' W 069°34'3 2.9
2018-Jul-30 21:23N 43°47' W 069°37'3 8.9
2018-Jul-30 21:00N 43°46' W 069°32'5 9.6
2018-Jul-30 20:30N 43°45' W 069°26'4 7.6
2018-Jul-30 20:00N 43°45' W 069°21'2 3.7
2018-Jul-30 19:30N 43°46' W 069°19'0 0.1
2018-Jul-30 19:00N 43°46' W 069°19'0 0.0
2018-Jul-30 18:30N 43°46' W 069°19'0 0.0
2018-Jul-30 18:00N 43°46' W 069°19'0 0.0
2018-Jul-30 17:30N 43°46' W 069°19'0 0.0
2018-Jul-30 17:00N 43°46' W 069°19'0 0.0
2018-Jul-30 16:30N 43°46' W 069°19'0 0.0
2018-Jul-30 15:57N 43°46' W 069°19'0 0.1
2018-Jul-30 15:30N 43°46' W 069°19'0 0.1
2018-Jul-30 15:00N 43°46' W 069°19'0 0.0
2018-Jul-30 14:30N 43°46' W 069°19'0 0.0
2018-Jul-30 13:58N 43°46' W 069°19'0 0.0
2018-Jul-30 13:30N 43°46' W 069°19'0 0.0
2018-Jul-30 13:01N 43°46' W 069°19'0 0.0
2018-Jul-30 12:30N 43°46' W 069°19'0 0.0
2018-Jul-30 12:00N 43°46' W 069°19'0 0.0
2018-Jul-30 11:30N 43°46' W 069°19'0 0.0
2018-Jul-30 11:00N 43°46' W 069°19'0 0.0
2018-Jul-30 10:30N 43°46' W 069°19'0 0.0
2018-Jul-30 10:00N 43°46' W 069°19'0 0.0
2018-Jul-30 09:31N 43°46' W 069°19'0 0.0
2018-Jul-30 09:00N 43°46' W 069°19'0 0.0
2018-Jul-30 08:30N 43°46' W 069°19'0 0.0
2018-Jul-30 08:00N 43°46' W 069°19'0 0.0
2018-Jul-30 07:30N 43°46' W 069°19'0 0.0
2018-Jul-30 07:00N 43°46' W 069°19'0 0.0
2018-Jul-30 06:30N 43°46' W 069°19'0 0.0
2018-Jul-30 06:01N 43°46' W 069°19'0 0.0
2018-Jul-30 05:30N 43°46' W 069°19'0 0.0
2018-Jul-30 05:00N 43°46' W 069°19'0 0.0
2018-Jul-30 04:30N 43°46' W 069°19'0 0.0
2018-Jul-30 04:00N 43°46' W 069°19'0 0.0
2018-Jul-30 03:30N 43°46' W 069°19'0 0.1
2018-Jul-30 03:00N 43°46' W 069°19'0 0.0
2018-Jul-30 02:30N 43°46' W 069°19'11 1.6
2018-Jul-29 19:36N 43°49' W 069°34'  

Dump ship's entire track history